Time;durP1;ratioP1;P1;durP2;ratioP2;P2;SDS_P1;SDS_P2;PMS_P1;PMS_P2;Temp;Humidity;BMP_temperature;BMP_pressure;BME280_temperature;BME280_humidity;BME280_pressure;Samples;Min_cycle;Max_cycle;Signal;HPM_P1;HPM_P2
2021/01/06 00:01:16;;;;;;;36.00;22.65;;;1.90;99.90;;;;;;5091623;28;20016;-65
2021/01/06 00:03:42;;;;;;;41.92;25.25;;;2.00;99.90;;;;;;5084937;28;20035;-65
2021/01/06 00:06:11;;;;;;;37.33;23.70;;;1.90;99.90;;;;;;5091382;28;20038;-64
2021/01/06 00:08:40;;;;;;;41.95;24.90;;;2.00;99.90;;;;;;5085040;28;20400;-65
2021/01/06 00:11:05;;;;;;;38.70;24.90;;;1.90;99.90;;;;;;5091497;28;20024;-65
2021/01/06 00:13:31;;;;;;;38.80;25.45;;;1.90;99.90;;;;;;5084875;28;20119;-65
2021/01/06 00:15:57;;;;;;;40.42;25.55;;;1.80;99.90;;;;;;5091250;28;20044;-65
2021/01/06 00:18:24;;;;;;;39.97;25.50;;;1.80;99.90;;;;;;5084473;28;20085;-65
2021/01/06 00:20:50;;;;;;;38.90;25.13;;;1.80;99.90;;;;;;5082134;28;20607;-65
2021/01/06 00:23:16;;;;;;;43.80;25.50;;;1.80;99.90;;;;;;5081607;28;20591;-65
2021/01/06 00:25:42;;;;;;;41.08;25.73;;;1.90;99.90;;;;;;5090833;28;20031;-65
2021/01/06 00:28:11;;;;;;;43.08;26.63;;;2.00;99.90;;;;;;5088162;28;20032;-65
2021/01/06 00:30:45;;;;;;;43.20;26.23;;;1.90;99.90;;;;;;5083929;28;20030;-64
2021/01/06 00:33:34;;;;;;;42.28;25.60;;;1.90;99.90;;;;;;5080901;28;20020;-65
2021/01/06 00:36:09;;;;;;;40.90;23.73;;;1.90;99.90;;;;;;5082452;28;20514;-65
2021/01/06 00:38:37;;;;;;;38.58;24.55;;;1.90;99.90;;;;;;5084505;28;20022;-65
2021/01/06 00:41:04;;;;;;;43.05;26.20;;;1.90;99.90;;;;;;5090944;28;20361;-65
2021/01/06 00:43:30;;;;;;;39.72;24.58;;;1.80;99.90;;;;;;5085351;28;20591;-66
2021/01/06 00:45:56;;;;;;;42.45;24.80;;;1.80;99.90;;;;;;5090962;28;20012;-65
2021/01/06 00:48:21;;;;;;;38.08;24.08;;;1.60;99.90;;;;;;5084579;28;20391;-65
2021/01/06 00:50:48;;;;;;;40.55;25.35;;;1.90;99.90;;;;;;5089062;28;20400;-65
2021/01/06 00:53:31;;;;;;;44.45;26.38;;;1.80;99.90;;;;;;5081421;28;20033;-65
2021/01/06 00:55:57;;;;;;;41.53;24.67;;;1.90;99.90;;;;;;5087731;28;20111;-64
2021/01/06 00:58:23;;;;;;;44.25;26.23;;;1.80;99.90;;;;;;5085061;28;20536;-65
2021/01/06 01:00:49;;;;;;;41.08;25.40;;;1.70;99.90;;;;;;5097164;28;20476;-65
2021/01/06 01:03:15;;;;;;;41.33;26.02;;;1.60;99.90;;;;;;5088159;28;20020;-65
2021/01/06 01:05:41;;;;;;;41.85;25.38;;;1.70;99.90;;;;;;5090623;28;20055;-65
2021/01/06 01:08:08;;;;;;;40.58;25.17;;;1.60;99.90;;;;;;5081359;28;20488;-65
2021/01/06 01:10:35;;;;;;;37.50;24.48;;;1.80;99.90;;;;;;5088499;28;20027;-65
2021/01/06 01:13:05;;;;;;;36.63;24.80;;;1.80;99.90;;;;;;5082858;28;20062;-64
2021/01/06 01:15:35;;;;;;;41.45;25.63;;;1.90;99.90;;;;;;5087133;28;20012;-65
2021/01/06 01:18:02;;;;;;;39.20;24.65;;;1.80;99.90;;;;;;5088086;28;20067;-65
2021/01/06 01:20:27;;;;;;;39.22;24.38;;;1.70;99.90;;;;;;5089071;28;20024;-65
2021/01/06 01:22:53;;;;;;;38.70;23.83;;;1.70;99.90;;;;;;5083563;28;20033;-65
2021/01/06 01:25:21;;;;;;;35.53;23.45;;;1.70;99.90;;;;;;5090130;28;20024;-65
2021/01/06 01:27:47;;;;;;;36.10;23.05;;;1.70;99.90;;;;;;5084615;28;20024;-65
2021/01/06 01:30:19;;;;;;;40.13;24.25;;;1.70;99.90;;;;;;5089868;28;20633;-64
2021/01/06 01:32:46;;;;;;;37.92;23.92;;;1.60;99.90;;;;;;5083694;28;20020;-65
2021/01/06 01:35:14;;;;;;;36.50;22.55;;;1.70;99.90;;;;;;5090066;28;20024;-65
2021/01/06 01:37:44;;;;;;;36.30;23.20;;;1.60;99.90;;;;;;5083634;28;20357;-65
2021/01/06 01:40:24;;;;;;;36.70;22.85;;;1.70;99.90;;;;;;5089892;28;20028;-65
2021/01/06 01:42:58;;;;;;;37.22;23.33;;;1.80;99.90;;;;;;5083463;28;20040;-65
2021/01/06 01:45:25;;;;;;;38.90;24.90;;;1.70;99.90;;;;;;5089900;28;20028;-65
2021/01/06 01:47:59;;;;;;;37.03;23.30;;;1.60;99.90;;;;;;5083510;28;20612;-65
2021/01/06 01:50:26;;;;;;;35.97;22.90;;;1.80;99.90;;;;;;5089959;28;20023;-65
2021/01/06 01:52:57;;;;;;;34.35;22.30;;;2.00;99.90;;;;;;5087896;28;20071;-64
2021/01/06 01:55:24;;;;;;;35.90;23.60;;;1.80;99.90;;;;;;5089709;28;20448;-65
2021/01/06 01:58:00;;;;;;;34.03;22.75;;;1.90;99.90;;;;;;5083654;28;20039;-65
2021/01/06 02:00:28;;;;;;;34.88;22.05;;;1.90;99.90;;;;;;5084780;28;20016;-65
2021/01/06 02:03:00;;;;;;;38.63;22.65;;;2.00;99.90;;;;;;5083671;28;20446;-65
2021/01/06 02:06:00;;;;;;;39.65;24.00;;;1.90;99.90;;;;;;5087355;28;20024;-65
2021/01/06 02:08:33;;;;;;;34.67;22.77;;;1.70;99.90;;;;;;5078236;28;20534;-65
2021/01/06 02:11:16;;;;;;;37.65;22.60;;;1.90;99.90;;;;;;5076319;28;20362;-65
2021/01/06 02:14:02;;;;;;;34.17;23.23;;;1.70;99.90;;;;;;5087472;28;20111;-65
2021/01/06 02:16:59;;;;;;;35.00;22.15;;;2.00;99.90;;;;;;5088573;28;20040;-65
2021/01/06 02:19:30;;;;;;;39.22;23.67;;;1.90;99.90;;;;;;5084727;28;20439;-65
2021/01/06 02:21:56;;;;;;;33.70;22.38;;;1.90;99.90;;;;;;5090876;28;20028;-66
2021/01/06 02:24:23;;;;;;;33.28;23.02;;;2.00;99.90;;;;;;5089732;28;20066;-65
2021/01/06 02:26:49;;;;;;;36.97;23.58;;;2.00;99.90;;;;;;5091759;28;20501;-64
2021/01/06 02:29:15;;;;;;;39.10;23.52;;;1.90;99.90;;;;;;5088816;28;20044;-64
2021/01/06 02:31:41;;;;;;;37.67;24.23;;;2.00;99.90;;;;;;5092238;28;20025;-64
2021/01/06 02:34:09;;;;;;;42.78;25.20;;;1.90;99.90;;;;;;5088892;28;20073;-65
2021/01/06 02:36:35;;;;;;;42.45;24.73;;;1.90;99.90;;;;;;5090455;28;20055;-65
2021/01/06 02:39:01;;;;;;;38.95;24.80;;;1.90;99.90;;;;;;5088276;28;20576;-65
2021/01/06 02:41:27;;;;;;;34.85;22.75;;;1.90;99.90;;;;;;5092532;28;20095;-65
2021/01/06 02:43:52;;;;;;;37.03;23.52;;;1.80;99.90;;;;;;5083520;28;20427;-64
2021/01/06 02:46:18;;;;;;;37.10;22.60;;;1.90;99.90;;;;;;5093237;28;20048;-64
2021/01/06 02:48:46;;;;;;;35.90;22.38;;;1.90;99.90;;;;;;5086716;28;20020;-65
2021/01/06 02:51:39;;;;;;;36.60;22.98;;;1.80;99.90;;;;;;5093214;28;20136;-65
2021/01/06 02:54:08;;;;;;;34.38;20.80;;;2.00;99.90;;;;;;5075306;28;20551;-66
2021/01/06 02:56:35;;;;;;;34.70;21.60;;;1.70;99.90;;;;;;5091142;28;20028;-65
2021/01/06 02:59:05;;;;;;;36.17;22.40;;;1.70;99.90;;;;;;5086803;28;20077;-65
2021/01/06 03:01:34;;;;;;;36.33;22.02;;;1.80;99.90;;;;;;5091763;28;20063;-64
2021/01/06 03:04:01;;;;;;;33.38;21.98;;;1.70;99.90;;;;;;5087923;28;20081;-65
2021/01/06 03:06:45;;;;;;;35.95;23.10;;;1.90;99.90;;;;;;5092033;28;20020;-65
2021/01/06 03:09:25;;;;;;;32.38;21.48;;;1.80;99.90;;;;;;5087387;28;20111;-65
2021/01/06 03:11:50;;;;;;;36.55;21.73;;;1.70;99.90;;;;;;5088870;28;20024;-65
2021/01/06 03:14:16;;;;;;;36.63;21.92;;;1.70;99.90;;;;;;5091554;28;20128;-65
2021/01/06 03:16:42;;;;;;;31.02;20.40;;;1.80;99.90;;;;;;5090467;28;20048;-65
2021/01/06 03:19:09;;;;;;;29.23;20.00;;;1.60;99.90;;;;;;5085263;28;20028;-64
2021/01/06 03:21:38;;;;;;;29.35;20.17;;;1.80;99.90;;;;;;5088937;28;20028;-64
2021/01/06 03:24:04;;;;;;;29.45;19.83;;;1.80;99.90;;;;;;5084308;28;20635;-64
2021/01/06 03:26:31;;;;;;;30.15;20.50;;;1.80;99.90;;;;;;5087213;28;20492;-65
2021/01/06 03:28:57;;;;;;;34.90;21.85;;;1.80;99.90;;;;;;5089392;28;20756;-66
2021/01/06 03:31:40;;;;;;;32.67;20.63;;;1.60;99.90;;;;;;5090713;28;20024;-65
2021/01/06 03:34:12;;;;;;;31.23;20.27;;;1.90;99.90;;;;;;5089677;28;20051;-65
2021/01/06 03:36:44;;;;;;;32.58;20.85;;;2.00;99.90;;;;;;5090316;28;20091;-65
2021/01/06 03:39:17;;;;;;;30.73;19.75;;;1.90;99.90;;;;;;5087163;28;20020;-64
2021/01/06 03:41:44;;;;;;;32.38;21.15;;;1.90;99.90;;;;;;5088849;28;20028;-64
2021/01/06 03:44:11;;;;;;;30.88;20.27;;;1.80;99.90;;;;;;5088652;28;20040;-64
2021/01/06 03:46:43;;;;;;;30.73;20.95;;;1.80;99.90;;;;;;5089101;28;20153;-65
2021/01/06 03:49:35;;;;;;;30.63;20.35;;;1.90;99.90;;;;;;5085829;28;20032;-64
2021/01/06 03:52:08;;;;;;;28.33;18.52;;;1.90;99.90;;;;;;5088546;28;20024;-64
2021/01/06 03:54:55;;;;;;;26.98;19.13;;;1.90;99.90;;;;;;5080950;28;20012;-65
2021/01/06 03:57:22;;;;;;;26.15;18.30;;;1.90;99.90;;;;;;5074410;28;20089;-65
2021/01/06 03:59:50;;;;;;;28.23;19.02;;;1.90;99.90;;;;;;5080810;28;20070;-64
2021/01/06 04:02:22;;;;;;;31.15;19.48;;;1.90;99.90;;;;;;5074472;28;20370;-64
2021/01/06 04:04:53;;;;;;;28.92;19.73;;;2.00;99.90;;;;;;5080490;28;20499;-65
2021/01/06 04:07:27;;;;;;;28.25;19.45;;;1.90;99.90;;;;;;5076392;28;20377;-64
2021/01/06 04:10:02;;;;;;;28.35;19.20;;;1.90;99.90;;;;;;5088938;28;20059;-65
2021/01/06 04:12:28;;;;;;;26.80;18.53;;;1.90;99.90;;;;;;5086169;28;20502;-64
2021/01/06 04:14:53;;;;;;;28.50;19.10;;;1.90;99.90;;;;;;5088628;28;20059;-65
2021/01/06 04:17:25;;;;;;;29.95;19.77;;;1.90;99.90;;;;;;5088207;28;20523;-64
2021/01/06 04:19:54;;;;;;;25.90;18.75;;;2.00;99.90;;;;;;5087536;28;20026;-64
2021/01/06 04:22:39;;;;;;;27.13;18.08;;;1.80;99.90;;;;;;5077430;28;20561;-65
2021/01/06 04:25:27;;;;;;;26.88;18.75;;;1.70;99.90;;;;;;5087820;28;20142;-65
2021/01/06 04:28:02;;;;;;;26.17;18.42;;;1.70;99.90;;;;;;5087071;28;20048;-64
2021/01/06 04:30:40;;;;;;;29.63;19.65;;;1.90;99.90;;;;;;5091174;28;20024;-65
2021/01/06 04:33:17;;;;;;;27.00;17.92;;;1.80;99.90;;;;;;5085755;28;20032;-65
2021/01/06 04:35:43;;;;;;;29.13;19.33;;;1.70;99.90;;;;;;5079166;28;20031;-65
2021/01/06 04:38:13;;;;;;;27.92;19.20;;;1.90;99.90;;;;;;5084653;28;20024;-65
2021/01/06 04:40:42;;;;;;;26.60;18.13;;;1.70;99.90;;;;;;5090824;28;20061;-64
2021/01/06 04:43:15;;;;;;;30.15;18.83;;;1.70;99.90;;;;;;5083168;28;20028;-65
2021/01/06 04:45:48;;;;;;;28.27;18.73;;;1.70;99.90;;;;;;5086148;28;20480;-64
2021/01/06 04:48:43;;;;;;;27.50;18.77;;;1.70;99.90;;;;;;5088259;28;20024;-64
2021/01/06 04:51:41;;;;;;;28.83;18.17;;;1.70;99.90;;;;;;5089364;28;20031;-64
2021/01/06 04:54:12;;;;;;;;;;;1.90;99.90;;;;;;5084367;28;20044;-64
2021/01/06 04:56:44;;;;;;;25.98;16.58;;;1.80;99.90;;;;;;5088927;28;19961;-64
2021/01/06 04:59:25;;;;;;;26.08;17.88;;;1.70;99.90;;;;;;5080263;28;20028;-64
2021/01/06 05:02:22;;;;;;;29.60;19.50;;;1.80;99.90;;;;;;5082567;28;20025;-64
2021/01/06 05:04:47;;;;;;;;;;;1.80;99.90;;;;;;5081546;28;20061;-64
2021/01/06 05:07:31;;;;;;;29.53;18.03;;;1.80;99.90;;;;;;5086586;28;20580;-65
2021/01/06 05:10:06;;;;;;;27.85;17.40;;;1.70;99.90;;;;;;5082610;28;20388;-65
2021/01/06 05:12:39;;;;;;;28.35;18.75;;;1.80;99.90;;;;;;5085601;28;20496;-65
2021/01/06 05:15:13;;;;;;;26.25;17.52;;;1.70;99.90;;;;;;5084770;28;20028;-65
2021/01/06 05:17:41;;;;;;;27.67;18.00;;;1.70;99.90;;;;;;5082454;28;20389;-64
2021/01/06 05:20:08;;;;;;;27.27;16.98;;;1.80;99.90;;;;;;5088890;28;20032;-64
2021/01/06 05:22:35;;;;;;;25.25;17.50;;;1.90;99.90;;;;;;5082792;28;20024;-64
2021/01/06 05:25:01;;;;;;;24.95;17.17;;;1.90;99.90;;;;;;5089776;28;20143;-64
2021/01/06 05:27:46;;;;;;;23.60;16.55;;;1.70;99.90;;;;;;5084290;28;20112;-64
2021/01/06 05:30:20;;;;;;;24.80;17.33;;;1.60;99.90;;;;;;5066165;28;20555;-64
2021/01/06 05:32:46;;;;;;;27.30;18.10;;;1.70;99.90;;;;;;5083972;28;20028;-64
2021/01/06 05:35:16;;;;;;;29.83;18.05;;;1.90;99.90;;;;;;5089408;28;20020;-63
2021/01/06 05:37:51;;;;;;;29.50;17.85;;;1.80;99.90;;;;;;5084081;28;20024;-64
2021/01/06 05:40:16;;;;;;;33.47;19.23;;;1.70;99.90;;;;;;5084922;28;20101;-64
2021/01/06 05:42:53;;;;;;;31.95;20.20;;;1.80;99.90;;;;;;5085201;28;20476;-64
2021/01/06 05:45:28;;;;;;;29.55;19.90;;;1.70;99.90;;;;;;5090288;28;20051;-63
2021/01/06 05:48:05;;;;;;;32.15;19.13;;;1.70;99.90;;;;;;5088258;28;20489;-63
2021/01/06 05:50:36;;;;;;;33.88;19.88;;;1.60;99.90;;;;;;5089387;28;20086;-63
2021/01/06 05:53:04;;;;;;;28.55;18.92;;;1.80;99.90;;;;;;5088376;28;20028;-64
2021/01/06 05:55:34;;;;;;;33.00;19.27;;;1.70;99.90;;;;;;5091031;28;20062;-64
2021/01/06 05:58:00;;;;;;;36.40;21.15;;;1.70;99.90;;;;;;5089162;28;20032;-64
2021/01/06 06:00:45;;;;;;;33.00;20.13;;;1.60;99.90;;;;;;5093730;28;20035;-65
2021/01/06 06:03:40;;;;;;;33.45;20.40;;;1.70;99.90;;;;;;5069230;28;20035;-64
2021/01/06 06:06:37;;;;;;;31.55;18.55;;;1.60;99.90;;;;;;5091152;28;20028;-63
2021/01/06 06:09:27;;;;;;;29.35;18.40;;;1.60;99.90;;;;;;5092986;28;20384;-63
2021/01/06 06:12:28;;;;;;;25.67;18.05;;;1.60;99.90;;;;;;5090781;28;20459;-64
2021/01/06 06:15:01;;;;;;;29.70;18.77;;;1.70;99.90;;;;;;5088147;28;20103;-64
2021/01/06 06:17:43;;;;;;;27.13;18.42;;;1.60;99.90;;;;;;5091063;28;20048;-64
2021/01/06 06:20:45;;;;;;;31.17;19.30;;;1.60;99.90;;;;;;5092942;28;20099;-63
2021/01/06 06:23:14;;;;;;;28.05;18.55;;;1.70;99.90;;;;;;5082169;28;20032;-64
2021/01/06 06:25:59;;;;;;;28.48;19.13;;;1.80;99.90;;;;;;5087727;28;20055;-64
2021/01/06 06:28:33;;;;;;;26.63;18.50;;;1.70;99.90;;;;;;5088129;28;20077;-64
2021/01/06 06:31:26;;;;;;;26.80;18.45;;;1.70;99.90;;;;;;5084418;28;20070;-64
2021/01/06 06:33:54;;;;;;;23.42;16.95;;;1.60;99.90;;;;;;5080303;28;20337;-65
2021/01/06 06:36:23;;;;;;;27.55;18.48;;;1.70;99.90;;;;;;5076137;28;20031;-65
2021/01/06 06:38:50;;;;;;;25.85;17.80;;;1.60;99.90;;;;;;5084693;28;20052;-65
2021/01/06 06:41:21;;;;;;;25.20;17.33;;;1.70;99.90;;;;;;5083612;28;20012;-64
2021/01/06 06:43:49;;;;;;;25.52;17.88;;;1.50;99.90;;;;;;5082746;28;20060;-63
2021/01/06 06:46:24;;;;;;;28.95;17.02;;;1.60;99.90;;;;;;5083803;28;20016;-64
2021/01/06 06:49:02;;;;;;;23.50;16.38;;;1.60;99.90;;;;;;5085089;28;20031;-65
2021/01/06 06:51:39;;;;;;;27.20;16.73;;;1.60;99.90;;;;;;5082903;28;20020;-64
2021/01/06 06:54:32;;;;;;;24.27;17.33;;;1.50;99.90;;;;;;5089789;28;20024;-65
2021/01/06 06:57:05;;;;;;;26.38;17.73;;;1.80;99.90;;;;;;5090721;28;20055;-65
2021/01/06 06:59:55;;;;;;;27.08;16.98;;;1.60;99.90;;;;;;5089729;28;20111;-65
2021/01/06 07:02:21;;;;;;;33.63;20.30;;;1.60;99.90;;;;;;5086673;28;20074;-64
2021/01/06 07:04:54;;;;;;;27.48;18.42;;;1.70;99.90;;;;;;5089725;28;20517;-66
2021/01/06 07:07:41;;;;;;;26.33;18.42;;;2.70;99.90;;;;;;5088974;28;20025;-66
2021/01/06 07:10:26;;;;;;;28.27;18.15;;;2.00;99.90;;;;;;5085060;28;20031;-66
2021/01/06 07:13:01;;;;;;;27.38;18.23;;;1.70;99.90;;;;;;5087638;28;20028;-65
2021/01/06 07:15:30;;;;;;;31.33;19.55;;;1.80;99.90;;;;;;5088660;28;20020;-66
2021/01/06 07:17:56;;;;;;;31.92;19.77;;;1.80;99.90;;;;;;5086732;28;20036;-65
2021/01/06 07:20:41;;;;;;;28.92;19.13;;;1.80;99.90;;;;;;5087917;28;20488;-63
2021/01/06 07:23:28;;;;;;;29.55;18.50;;;1.80;99.90;;;;;;5084132;28;20032;-62
2021/01/06 07:26:04;;;;;;;28.98;18.48;;;1.90;99.90;;;;;;5089742;28;20471;-64
2021/01/06 07:28:30;;;;;;;25.65;16.23;;;1.80;99.90;;;;;;5086704;28;20047;-63
2021/01/06 07:31:12;;;;;;;22.67;16.33;;;1.80;99.90;;;;;;5083948;28;20024;-62
2021/01/06 07:33:41;;;;;;;22.90;15.55;;;1.60;99.90;;;;;;5088966;28;20103;-64
2021/01/06 07:36:15;;;;;;;24.20;15.63;;;1.80;99.90;;;;;;5076358;28;20025;-63
2021/01/06 07:38:44;;;;;;;22.17;15.88;;;1.90;99.90;;;;;;5078386;28;20036;-64
2021/01/06 07:41:11;;;;;;;22.70;16.48;;;1.90;99.90;;;;;;5088098;28;20047;-65
2021/01/06 07:43:44;;;;;;;21.90;15.90;;;1.70;99.90;;;;;;5085344;28;20504;-64
2021/01/06 07:46:18;;;;;;;21.92;15.63;;;1.90;99.90;;;;;;5091670;28;20020;-63
2021/01/06 07:48:46;;;;;;;22.23;14.88;;;1.80;99.90;;;;;;5085214;28;20039;-64
2021/01/06 07:51:21;;;;;;;21.17;14.90;;;1.90;99.90;;;;;;5091883;28;20077;-63
2021/01/06 07:54:03;;;;;;;19.05;14.15;;;2.00;99.90;;;;;;5085166;28;20064;-61
2021/01/06 07:56:39;;;;;;;21.95;16.05;;;2.00;99.90;;;;;;5083862;28;20193;-61
2021/01/06 07:59:16;;;;;;;;;;;1.90;99.90;;;;;;5082050;28;20095;-61
2021/01/06 08:01:46;;;;;;;21.33;14.30;;;2.00;99.90;;;;;;5089476;28;19904;-62
2021/01/06 08:04:20;;;;;;;22.02;14.15;;;1.90;99.90;;;;;;5087799;28;20044;-61
2021/01/06 08:06:53;;;;;;;20.20;14.75;;;2.00;99.90;;;;;;5092016;28;20123;-62
2021/01/06 08:09:39;;;;;;;23.00;14.52;;;2.00;99.90;;;;;;5086419;28;20063;-62
2021/01/06 08:12:26;;;;;;;24.63;15.50;;;1.90;99.90;;;;;;5085317;28;20517;-63
2021/01/06 08:15:17;;;;;;;23.73;15.98;;;2.00;99.90;;;;;;5082731;28;20059;-61
2021/01/06 08:17:56;;;;;;;26.92;18.92;;;1.80;99.90;;;;;;5086559;28;20119;-61
2021/01/06 08:20:28;;;;;;;24.80;16.42;;;2.00;99.90;;;;;;5085435;28;20027;-61
2021/01/06 08:23:25;;;;;;;25.75;16.58;;;2.00;99.90;;;;;;5085351;28;20507;-61
2021/01/06 08:26:02;;;;;;;26.45;16.55;;;1.90;99.90;;;;;;5088806;28;20648;-60
2021/01/06 08:28:30;;;;;;;24.88;16.50;;;1.90;99.90;;;;;;5088519;28;20044;-62
2021/01/06 08:31:10;;;;;;;20.98;15.77;;;2.00;99.90;;;;;;5085377;28;20016;-60
2021/01/06 08:33:52;;;;;;;21.42;15.93;;;2.10;99.90;;;;;;5083112;28;20176;-61
2021/01/06 08:36:36;;;;;;;21.00;14.63;;;2.50;99.90;;;;;;5086513;28;20035;-61
2021/01/06 08:39:23;;;;;;;21.58;14.98;;;2.10;99.90;;;;;;5087180;28;20583;-61
2021/01/06 08:41:50;;;;;;;25.95;14.50;;;2.10;99.90;;;;;;5086341;28;20024;-61
2021/01/06 08:44:30;;;;;;;21.63;15.15;;;2.20;99.90;;;;;;5085892;28;20074;-61
2021/01/06 08:46:57;;;;;;;22.95;15.20;;;2.20;99.90;;;;;;5088587;28;20027;-62
2021/01/06 08:49:27;;;;;;;19.13;14.23;;;2.80;99.90;;;;;;5085915;28;20062;-61
2021/01/06 08:51:56;;;;;;;17.88;12.48;;;2.60;99.90;;;;;;5088573;28;20132;-60
2021/01/06 08:54:32;;;;;;;21.27;14.05;;;5.30;99.90;;;;;;5090487;28;20059;-66
2021/01/06 08:57:18;;;;;;;18.35;12.60;;;5.00;99.90;;;;;;5074394;28;20500;-61
2021/01/06 08:59:43;;;;;;;16.15;12.48;;;3.50;99.90;;;;;;5087445;28;20025;-62
2021/01/06 09:02:45;;;;;;;22.08;13.43;;;3.00;99.90;;;;;;5084437;28;20028;-63
2021/01/06 09:05:48;;;;;;;20.25;14.52;;;2.90;99.90;;;;;;5064294;28;20039;-64
2021/01/06 09:08:25;;;;;;;20.10;15.13;;;2.50;99.90;;;;;;5086443;28;20038;-64
2021/01/06 09:11:04;;;;;;;20.40;14.07;;;2.40;99.90;;;;;;5079993;28;20020;-64
2021/01/06 09:13:39;;;;;;;16.83;12.43;;;2.40;99.90;;;;;;5082595;28;20044;-64
2021/01/06 09:16:26;;;;;;;19.35;14.57;;;2.40;99.90;;;;;;5072651;28;20404;-65
2021/01/06 09:19:05;;;;;;;18.48;13.70;;;2.30;99.90;;;;;;5084764;28;20039;-65
2021/01/06 09:21:32;;;;;;;19.50;14.35;;;2.50;99.90;;;;;;5084622;28;20584;-66
2021/01/06 09:24:20;;;;;;;16.23;12.57;;;2.50;99.90;;;;;;5082872;28;20044;-64
2021/01/06 09:26:52;;;;;;;14.55;10.82;;;2.50;99.90;;;;;;5069379;28;20453;-65
2021/01/06 09:29:20;;;;;;;16.02;11.57;;;2.40;99.90;;;;;;5085412;28;20024;-64
2021/01/06 09:31:53;;;;;;;16.05;11.05;;;2.40;99.90;;;;;;5074206;28;20046;-64
2021/01/06 09:34:24;;;;;;;15.93;11.23;;;2.50;99.90;;;;;;5081111;28;20058;-65
2021/01/06 09:36:50;;;;;;;14.88;11.23;;;3.90;99.90;;;;;;5078420;28;20056;-64
2021/01/06 09:39:24;;;;;;;13.95;11.50;;;3.10;99.90;;;;;;5082885;28;20542;-65
2021/01/06 09:41:55;;;;;;;20.83;11.50;;;2.80;99.90;;;;;;5078483;28;20031;-64
2021/01/06 09:44:20;;;;;;;13.18;10.82;;;2.70;99.90;;;;;;5085353;28;20076;-65
2021/01/06 09:46:56;;;;;;;18.15;10.68;;;2.60;99.90;;;;;;5083564;28;20101;-65
2021/01/06 09:49:36;;;;;;;11.98;10.63;;;2.50;99.90;;;;;;5077733;28;20048;-65
2021/01/06 09:52:06;;;;;;;14.10;11.02;;;2.50;99.90;;;;;;5084148;28;20058;-65
2021/01/06 09:54:33;;;;;;;15.25;10.60;;;2.70;99.90;;;;;;5083192;28;20103;-65
2021/01/06 09:57:00;;;;;;;20.45;14.02;;;2.50;99.90;;;;;;5087606;28;20121;-65
2021/01/06 09:59:34;;;;;;;23.80;14.30;;;2.70;99.90;;;;;;5085114;28;20027;-65
2021/01/06 10:02:11;;;;;;;16.45;12.02;;;2.60;99.90;;;;;;5086359;28;20028;-65
2021/01/06 10:04:42;;;;;;;15.98;12.00;;;2.60;99.90;;;;;;5086976;28;20060;-65
2021/01/06 10:07:42;;;;;;;14.77;10.82;;;2.50;99.90;;;;;;5083897;28;20052;-65
2021/01/06 10:10:21;;;;;;;12.52;11.25;;;2.70;99.90;;;;;;5085940;28;20055;-66
2021/01/06 10:12:55;;;;;;;13.77;10.80;;;2.70;99.90;;;;;;5082197;28;20021;-65
2021/01/06 10:15:39;;;;;;;14.68;10.88;;;2.80;99.90;;;;;;5089406;28;20028;-65
2021/01/06 10:18:28;;;;;;;15.90;12.70;;;2.90;99.90;;;;;;5082773;28;20041;-65
2021/01/06 10:21:17;;;;;;;13.85;10.60;;;2.80;99.90;;;;;;5088124;28;20066;-65
2021/01/06 10:24:01;;;;;;;13.68;10.15;;;2.70;99.90;;;;;;5078098;28;20044;-65
2021/01/06 10:26:47;;;;;;;10.85;9.40;;;2.70;99.90;;;;;;5077732;28;20028;-65
2021/01/06 10:29:30;;;;;;;13.70;10.32;;;2.70;99.90;;;;;;5085496;28;20091;-65
2021/01/06 10:32:16;;;;;;;12.10;9.50;;;2.80;99.90;;;;;;5087287;28;20024;-66
2021/01/06 10:34:45;;;;;;;11.93;10.48;;;3.00;99.90;;;;;;5072530;28;20028;-65
2021/01/06 10:37:27;;;;;;;13.23;10.38;;;2.80;99.90;;;;;;5085366;28;20055;-64
2021/01/06 10:39:59;;;;;;;14.35;10.23;;;3.00;99.90;;;;;;5088384;28;20027;-64
2021/01/06 10:42:24;;;;;;;10.45;9.35;;;2.80;99.90;;;;;;5087737;28;20020;-64
2021/01/06 10:45:11;;;;;;;16.48;12.15;;;2.90;99.90;;;;;;5065169;28;20039;-64
2021/01/06 10:47:46;;;;;;;16.33;11.90;;;2.90;99.90;;;;;;5091472;28;20031;-64
2021/01/06 10:50:24;;;;;;;8.80;7.97;;;3.10;99.90;;;;;;5081977;28;20107;-65
2021/01/06 10:53:17;;;;;;;9.90;8.18;;;3.10;99.90;;;;;;5085736;28;20365;-65
2021/01/06 10:56:00;;;;;;;13.10;9.82;;;3.30;99.90;;;;;;5089558;28;20418;-65
2021/01/06 10:58:51;;;;;;;12.05;10.10;;;3.10;99.90;;;;;;5086816;28;20024;-65
2021/01/06 11:01:40;;;;;;;9.85;8.85;;;3.30;99.90;;;;;;5089742;28;20031;-63
2021/01/06 11:04:34;;;;;;;7.15;6.30;;;3.20;99.90;;;;;;5083140;28;20036;-65
2021/01/06 11:07:34;;;;;;;7.70;6.97;;;3.30;99.90;;;;;;5088777;28;20116;-64
2021/01/06 11:10:19;;;;;;;6.57;6.03;;;3.30;99.90;;;;;;5078064;28;20032;-65
2021/01/06 11:13:14;;;;;;;8.07;7.32;;;3.50;99.90;;;;;;5070172;28;20028;-65
2021/01/06 11:16:09;;;;;;;6.15;5.60;;;3.50;99.90;;;;;;5089144;28;20109;-65
2021/01/06 11:18:40;;;;;;;7.25;6.53;;;3.40;99.90;;;;;;5088382;28;20061;-65
2021/01/06 11:21:18;;;;;;;6.20;5.70;;;3.10;99.90;;;;;;5089832;28;20016;-65
2021/01/06 11:23:50;;;;;;;6.40;5.80;;;3.20;99.90;;;;;;5086266;28;20047;-66
2021/01/06 11:26:30;;;;;;;6.53;5.68;;;3.70;99.90;;;;;;5090070;28;20074;-65
2021/01/06 11:29:11;;;;;;;6.53;5.88;;;4.40;99.90;;;;;;5086122;28;20050;-65
2021/01/06 11:32:01;;;;;;;7.80;7.07;;;4.70;99.90;;;;;;5086238;28;20554;-65
2021/01/06 11:34:37;;;;;;;6.10;5.60;;;4.80;99.90;;;;;;5086659;28;20035;-65
2021/01/06 11:37:04;;;;;;;;;;;5.40;99.90;;;;;;5089775;28;20032;-65
2021/01/06 11:39:36;;;;;;;6.72;6.03;;;5.90;99.90;;;;;;5086336;28;19912;-65
2021/01/06 11:42:12;;;;;;;6.60;6.00;;;5.80;99.90;;;;;;5089505;28;20044;-65
2021/01/06 11:44:42;;;;;;;;;;;5.50;99.90;;;;;;5089162;28;20035;-65
2021/01/06 11:47:32;;;;;;;6.20;5.60;;;5.40;99.90;;;;;;5088181;28;19991;-65
2021/01/06 11:50:24;;;;;;;7.25;6.63;;;5.60;99.90;;;;;;5073778;28;20050;-65
2021/01/06 11:52:51;;;;;;;6.60;6.00;;;5.90;99.90;;;;;;5076497;28;20040;-65
2021/01/06 11:55:34;;;;;;;6.20;5.68;;;5.50;99.90;;;;;;5088885;28;20032;-66
2021/01/06 11:58:28;;;;;;;7.07;6.38;;;5.90;99.90;;;;;;5083789;28;20067;-65
2021/01/06 12:01:23;;;;;;;6.75;6.15;;;6.70;99.90;;;;;;5091765;28;20077;-66
2021/01/06 12:04:13;;;;;;;7.07;6.38;;;7.30;99.90;;;;;;5077190;28;20038;-65
2021/01/06 12:06:51;;;;;;;5.65;5.25;;;7.50;99.90;;;;;;5090817;28;20035;-66
2021/01/06 12:09:32;;;;;;;5.97;5.47;;;7.60;99.90;;;;;;5081244;28;20024;-64
2021/01/06 12:12:18;;;;;;;6.28;5.68;;;8.10;99.90;;;;;;5088569;28;20374;-65
2021/01/06 12:15:06;;;;;;;7.03;6.43;;;7.30;99.90;;;;;;5079628;28;20107;-65
2021/01/06 12:17:36;;;;;;;7.05;6.45;;;6.30;99.90;;;;;;5073537;28;20098;-65
2021/01/06 12:20:20;;;;;;;6.70;6.10;;;5.70;99.90;;;;;;5082460;28;20396;-65
2021/01/06 12:23:15;;;;;;;6.95;6.35;;;5.40;99.90;;;;;;5084768;28;20028;-65
2021/01/06 12:25:49;;;;;;;7.20;6.60;;;4.80;99.90;;;;;;5073788;28;20047;-66
2021/01/06 12:28:25;;;;;;;6.68;6.13;;;4.90;99.90;;;;;;5083543;28;20111;-65
2021/01/06 12:31:08;;;;;;;7.65;6.88;;;4.60;99.90;;;;;;5088173;28;20144;-65
2021/01/06 12:34:01;;;;;;;7.00;6.35;;;5.00;99.90;;;;;;5084591;28;20380;-65
2021/01/06 12:36:31;;;;;;;6.70;6.20;;;4.80;99.90;;;;;;5053020;28;20503;-65
2021/01/06 12:39:48;;;;;;;7.13;6.53;;;4.50;99.90;;;;;;5078760;28;20033;-64
2021/01/06 12:42:14;;;;;;;6.47;5.97;;;4.40;99.90;;;;;;5078507;28;20048;-64
2021/01/06 12:44:45;;;;;;;7.68;6.97;;;4.50;99.90;;;;;;5080891;28;20036;-65
2021/01/06 12:47:21;;;;;;;10.05;7.00;;;4.80;99.90;;;;;;5073178;28;20089;-64
2021/01/06 12:50:12;;;;;;;6.68;6.10;;;4.90;99.90;;;;;;5082009;28;20016;-63
2021/01/06 12:52:42;;;;;;;6.95;6.35;;;4.70;99.90;;;;;;5084996;28;20063;-64
2021/01/06 12:55:31;;;;;;;7.85;7.18;;;4.90;99.90;;;;;;5089028;28;20097;-63
2021/01/06 12:58:21;;;;;;;6.95;6.35;;;5.10;99.90;;;;;;5087972;28;20395;-63
2021/01/06 13:00:59;;;;;;;9.60;7.15;;;5.10;99.90;;;;;;5087990;28;20019;-64
2021/01/06 13:03:34;;;;;;;7.47;6.88;;;5.00;99.90;;;;;;5084799;28;20123;-63
2021/01/06 13:06:33;;;;;;;7.63;6.93;;;4.80;99.90;;;;;;5089380;28;20028;-64
2021/01/06 13:09:25;;;;;;;7.95;7.15;;;4.70;99.90;;;;;;5083097;28;20572;-64
2021/01/06 13:12:04;;;;;;;7.53;6.85;;;4.70;99.90;;;;;;5082463;28;20594;-64
2021/01/06 13:14:59;;;;;;;6.72;6.05;;;4.90;99.90;;;;;;5085884;28;20028;-64
2021/01/06 13:17:33;;;;;;;7.45;6.82;;;4.80;99.90;;;;;;5061189;28;20059;-64
2021/01/06 13:19:58;;;;;;;7.18;6.55;;;4.60;99.90;;;;;;5083952;28;20035;-64
2021/01/06 13:22:41;;;;;;;6.43;5.93;;;4.80;99.90;;;;;;5088474;28;20027;-63
2021/01/06 13:25:07;;;;;;;7.40;6.70;;;4.60;99.90;;;;;;5079191;28;20075;-63
2021/01/06 13:27:47;;;;;;;7.32;6.63;;;4.70;99.90;;;;;;5086012;28;20052;-63